Time;durP1;ratioP1;P1;durP2;ratioP2;P2;SDS_P1;SDS_P2;PMS_P1;PMS_P2;Temp;Humidity;BMP_temperature;BMP_pressure;BME280_temperature;BME280_humidity;BME280_pressure;Samples;Min_cycle;Max_cycle;Signal;HPM_P1;HPM_P2
2022/05/18 00:00:47;;;;;;;4.35;2.40;;;21.80;50.60;;;;;;5044328;28;20401;-49
2022/05/18 00:03:17;;;;;;;3.92;1.92;;;21.80;50.60;;;;;;5041702;28;20056;-50
2022/05/18 00:05:46;;;;;;;7.38;2.35;;;21.80;50.70;;;;;;5044310;28;20056;-47
2022/05/18 00:08:14;;;;;;;4.55;1.95;;;21.80;50.70;;;;;;5044602;28;20057;-49
2022/05/18 00:10:44;;;;;;;5.70;2.40;;;21.90;50.80;;;;;;5043563;28;20049;-47
2022/05/18 00:13:14;;;;;;;4.53;2.30;;;21.80;50.80;;;;;;5044219;28;20378;-48
2022/05/18 00:15:41;;;;;;;3.92;2.08;;;21.80;50.90;;;;;;5043628;28;20400;-49
2022/05/18 00:18:09;;;;;;;3.70;2.10;;;21.80;51.00;;;;;;5042458;28;20049;-48
2022/05/18 00:20:36;;;;;;;5.05;2.35;;;21.80;51.00;;;;;;5043935;28;20075;-47
2022/05/18 00:23:05;;;;;;;4.80;1.92;;;21.80;51.00;;;;;;5043926;28;20532;-51
2022/05/18 00:25:34;;;;;;;5.80;2.25;;;21.80;51.00;;;;;;5043720;28;20060;-50
2022/05/18 00:28:02;;;;;;;5.85;2.55;;;21.80;51.00;;;;;;5043735;28;20049;-50
2022/05/18 00:30:32;;;;;;;7.15;2.50;;;21.80;51.10;;;;;;5044371;28;20048;-50
2022/05/18 00:33:03;;;;;;;4.38;2.10;;;21.80;51.10;;;;;;5042269;28;20049;-48
2022/05/18 00:35:32;;;;;;;3.55;2.15;;;21.70;51.10;;;;;;5042972;28;20428;-51
2022/05/18 00:38:00;;;;;;;5.78;2.75;;;21.70;51.20;;;;;;5043447;28;20056;-48
2022/05/18 00:40:28;;;;;;;2.80;1.98;;;21.80;51.30;;;;;;5043156;28;20060;-49
2022/05/18 00:42:56;;;;;;;3.17;1.90;;;21.70;51.20;;;;;;5042171;28;20049;-46
2022/05/18 00:45:23;;;;;;;2.75;2.08;;;21.60;51.20;;;;;;5043109;28;20507;-48
2022/05/18 00:47:52;;;;;;;5.07;2.13;;;21.70;51.20;;;;;;5043600;28;20064;-47
2022/05/18 00:50:23;;;;;;;4.50;2.08;;;21.70;51.20;;;;;;5043019;28;20072;-48
2022/05/18 00:52:57;;;;;;;5.18;2.40;;;21.70;51.30;;;;;;5042734;28;20052;-48
2022/05/18 00:55:26;;;;;;;3.22;2.17;;;21.60;51.20;;;;;;5042985;28;20057;-48
2022/05/18 00:58:03;;;;;;;5.15;1.90;;;21.60;51.30;;;;;;5042847;28;20056;-47
2022/05/18 01:00:31;;;;;;;6.93;2.30;;;21.60;51.30;;;;;;5042786;28;20060;-48
2022/05/18 01:03:15;;;;;;;3.42;1.92;;;21.60;51.30;;;;;;5041711;28;20068;-48
2022/05/18 01:05:48;;;;;;;4.63;2.13;;;21.60;51.30;;;;;;5042523;28;20725;-49
2022/05/18 01:08:25;;;;;;;2.85;2.10;;;21.50;51.30;;;;;;5042722;28;20390;-47
2022/05/18 01:10:53;;;;;;;4.25;2.35;;;21.50;51.30;;;;;;5045001;28;20060;-49
2022/05/18 01:13:20;;;;;;;4.10;2.20;;;21.50;51.30;;;;;;5042710;28;20064;-49
2022/05/18 01:15:48;;;;;;;7.07;2.50;;;21.50;51.40;;;;;;5040457;28;20057;-49
2022/05/18 01:18:16;;;;;;;6.13;2.08;;;21.40;51.50;;;;;;5041599;28;20063;-48
2022/05/18 01:20:46;;;;;;;3.45;2.00;;;21.40;51.60;;;;;;5042999;28;20061;-48
2022/05/18 01:23:26;;;;;;;4.97;2.30;;;21.30;51.50;;;;;;5042048;28;20421;-47
2022/05/18 01:26:03;;;;;;;3.38;1.98;;;21.30;51.70;;;;;;5042559;28;20064;-47
2022/05/18 01:28:37;;;;;;;4.30;2.17;;;21.30;51.70;;;;;;5042558;28;20056;-49
2022/05/18 01:31:05;;;;;;;5.50;2.60;;;21.30;51.70;;;;;;5043064;28;20049;-50
2022/05/18 01:33:34;;;;;;;3.00;2.20;;;21.30;51.80;;;;;;5039772;28;20071;-49
2022/05/18 01:36:02;;;;;;;6.40;2.47;;;21.30;51.90;;;;;;5043107;28;20060;-52
2022/05/18 01:38:31;;;;;;;3.78;2.00;;;21.30;52.00;;;;;;5043167;28;20060;-50
2022/05/18 01:41:06;;;;;;;4.28;2.13;;;21.30;52.10;;;;;;5042855;28;20067;-47
2022/05/18 01:43:38;;;;;;;5.22;2.20;;;21.30;52.20;;;;;;5041686;28;20060;-47
2022/05/18 01:46:08;;;;;;;4.85;2.10;;;21.30;52.30;;;;;;5041882;28;20049;-50
2022/05/18 01:48:41;;;;;;;5.00;2.58;;;21.20;52.30;;;;;;5040134;28;20053;-48
2022/05/18 01:51:10;;;;;;;7.05;2.55;;;21.20;52.30;;;;;;5044184;28;20045;-51
2022/05/18 01:53:38;;;;;;;7.18;2.40;;;21.20;52.40;;;;;;5041852;28;20055;-51
2022/05/18 01:56:08;;;;;;;4.80;2.03;;;21.20;52.40;;;;;;5042662;28;20523;-47
2022/05/18 01:58:36;;;;;;;4.13;2.45;;;21.20;52.30;;;;;;5041430;28;20049;-50
2022/05/18 02:01:04;;;;;;;3.75;2.03;;;21.10;52.40;;;;;;5041576;28;20049;-50
2022/05/18 02:03:32;;;;;;;4.00;2.10;;;21.10;52.40;;;;;;5034567;28;20412;-47
2022/05/18 02:06:00;;;;;;;5.57;2.05;;;21.10;52.40;;;;;;5041794;28;20049;-47
2022/05/18 02:08:27;;;;;;;2.83;2.03;;;21.10;52.40;;;;;;5041983;28;20045;-48
2022/05/18 02:10:58;;;;;;;5.53;2.25;;;21.00;52.40;;;;;;5042297;28;20519;-48
2022/05/18 02:13:25;;;;;;;5.85;2.78;;;21.00;52.50;;;;;;5041722;28;20064;-47
2022/05/18 02:15:54;;;;;;;3.83;2.40;;;21.00;52.60;;;;;;5042034;28;20057;-51
2022/05/18 02:18:22;;;;;;;3.33;2.15;;;21.00;52.70;;;;;;5041253;28;20405;-48
2022/05/18 02:20:50;;;;;;;2.95;2.03;;;21.00;52.70;;;;;;5041797;28;20052;-49
2022/05/18 02:23:18;;;;;;;6.18;2.75;;;20.90;52.70;;;;;;5042169;28;20072;-50
2022/05/18 02:25:45;;;;;;;2.20;1.98;;;20.90;52.70;;;;;;5042193;28;20409;-52
2022/05/18 02:28:13;;;;;;;3.33;2.40;;;20.80;52.70;;;;;;5042562;28;20053;-49
2022/05/18 02:30:40;;;;;;;3.92;2.30;;;20.80;52.80;;;;;;5041681;28;20053;-49
2022/05/18 02:33:09;;;;;;;4.93;2.28;;;20.80;52.90;;;;;;5038941;28;20064;-52
2022/05/18 02:35:40;;;;;;;3.22;2.10;;;20.80;53.00;;;;;;5042480;28;20063;-49
2022/05/18 02:38:09;;;;;;;7.18;2.88;;;20.80;53.00;;;;;;5038320;28;20401;-49
2022/05/18 02:40:36;;;;;;;4.03;2.53;;;20.70;53.00;;;;;;5043364;28;20053;-51
2022/05/18 02:43:04;;;;;;;4.85;2.65;;;20.70;53.10;;;;;;5041460;28;20057;-48
2022/05/18 02:45:31;;;;;;;5.07;2.53;;;20.60;53.10;;;;;;5042693;28;20057;-51
2022/05/18 02:47:59;;;;;;;3.88;2.17;;;20.60;53.10;;;;;;5039985;28;20052;-51
2022/05/18 02:50:28;;;;;;;7.00;2.95;;;20.60;53.20;;;;;;5041263;28;20416;-51
2022/05/18 02:52:57;;;;;;;4.93;2.50;;;20.60;53.40;;;;;;5043864;28;20390;-49
2022/05/18 02:58:09;;;;;;;7.38;2.25;;;20.50;53.30;;;;;;5048729;28;20056;-51
2022/05/18 03:00:37;;;;;;;3.53;2.40;;;20.50;53.30;;;;;;5043384;28;20057;-49
2022/05/18 03:03:05;;;;;;;3.72;2.55;;;20.40;53.40;;;;;;5041816;28;20053;-49
2022/05/18 03:05:35;;;;;;;3.22;1.80;;;20.40;53.40;;;;;;5042164;28;20056;-49
2022/05/18 03:08:03;;;;;;;3.70;2.60;;;20.40;53.40;;;;;;5041782;28;20057;-47
2022/05/18 03:10:30;;;;;;;4.82;2.83;;;20.40;53.60;;;;;;5041547;28;20354;-53
2022/05/18 03:12:58;;;;;;;5.32;2.60;;;20.30;53.50;;;;;;5041778;28;20064;-50
2022/05/18 03:15:25;;;;;;;5.28;2.45;;;20.30;53.60;;;;;;5041410;28;20072;-51
2022/05/18 03:17:53;;;;;;;3.22;2.17;;;20.30;53.60;;;;;;5042635;28;20045;-47
2022/05/18 03:25:52;;;;;;;3.90;2.60;;;20.20;53.70;;;;;;5050860;28;20067;-51
2022/05/18 03:28:19;;;;;;;8.98;2.70;;;20.20;53.70;;;;;;5044792;28;20060;-48
2022/05/18 03:30:46;;;;;;;3.65;2.22;;;20.20;53.90;;;;;;5044688;28;20060;-50
2022/05/18 03:33:14;;;;;;;4.53;2.60;;;20.10;53.90;;;;;;5043600;28;20059;-48
2022/05/18 03:35:41;;;;;;;8.27;2.92;;;20.10;54.00;;;;;;5044379;28;20052;-48
2022/05/18 03:38:10;;;;;;;5.43;2.65;;;20.10;54.10;;;;;;5041095;28;20405;-47
2022/05/18 03:40:38;;;;;;;5.85;2.35;;;20.10;54.10;;;;;;5044436;28;20056;-49
2022/05/18 03:43:06;;;;;;;6.40;2.25;;;20.00;54.10;;;;;;5043947;28;20049;-51
2022/05/18 03:45:34;;;;;;;3.80;2.42;;;20.00;54.20;;;;;;5045384;28;20052;-49
2022/05/18 03:48:02;;;;;;;4.82;2.78;;;20.00;54.20;;;;;;5042894;28;20053;-50
2022/05/18 03:50:30;;;;;;;6.20;2.55;;;20.00;54.30;;;;;;5045477;28;20057;-48
2022/05/18 03:52:58;;;;;;;3.90;2.42;;;20.00;54.40;;;;;;5044644;28;20064;-48
2022/05/18 03:55:27;;;;;;;6.63;3.17;;;20.00;54.50;;;;;;5046183;28;20060;-48
2022/05/18 03:57:55;;;;;;;4.18;2.25;;;19.90;54.50;;;;;;5044059;28;20492;-53
2022/05/18 04:00:23;;;;;;;6.43;3.75;;;19.90;54.60;;;;;;5045058;28;20060;-52
2022/05/18 04:02:50;;;;;;;6.35;3.55;;;19.90;54.70;;;;;;5042658;28;20782;-47
2022/05/18 04:05:20;;;;;;;5.15;2.90;;;19.90;54.80;;;;;;5044424;28;20064;-47
2022/05/18 04:07:48;;;;;;;5.40;2.92;;;19.90;54.90;;;;;;5045059;28;20057;-51
2022/05/18 04:10:16;;;;;;;4.75;2.90;;;19.90;55.00;;;;;;5044215;28;20068;-50
2022/05/18 04:12:45;;;;;;;7.20;3.20;;;19.80;55.00;;;;;;5044693;28;20060;-53
2022/05/18 04:15:16;;;;;;;6.93;3.40;;;19.80;55.10;;;;;;5043463;28;20053;-52
2022/05/18 04:17:44;;;;;;;4.65;2.55;;;19.80;55.20;;;;;;5043235;28;20056;-52
2022/05/18 04:20:13;;;;;;;5.68;2.88;;;19.80;55.30;;;;;;5044349;28;20049;-51
2022/05/18 04:22:41;;;;;;;7.38;3.00;;;19.80;55.40;;;;;;5042955;28;20064;-50
2022/05/18 04:25:10;;;;;;;5.88;2.90;;;19.80;55.50;;;;;;5043767;28;20080;-49
2022/05/18 04:27:38;;;;;;;6.55;3.30;;;19.80;55.50;;;;;;5043617;28;20719;-51
2022/05/18 04:30:09;;;;;;;5.97;3.65;;;19.90;55.70;;;;;;5044487;28;20485;-48
2022/05/18 04:32:39;;;;;;;7.97;3.72;;;19.90;55.90;;;;;;5044157;28;20049;-47
2022/05/18 04:35:08;;;;;;;5.78;3.50;;;19.90;55.90;;;;;;5043807;28;20049;-49
2022/05/18 04:37:36;;;;;;;5.55;2.97;;;19.90;55.90;;;;;;5043736;28;20057;-53
2022/05/18 04:40:04;;;;;;;5.70;2.90;;;19.90;55.90;;;;;;5043141;28;20053;-50
2022/05/18 04:42:31;;;;;;;4.80;2.63;;;19.90;56.00;;;;;;5042674;28;20053;-51
2022/05/18 04:44:58;;;;;;;6.05;2.88;;;20.00;56.00;;;;;;5045249;28;20060;-50
2022/05/18 04:47:27;;;;;;;4.95;2.85;;;20.00;56.10;;;;;;5042240;28;20061;-49
2022/05/18 04:49:57;;;;;;;4.50;2.50;;;20.00;56.20;;;;;;5043977;28;20421;-47
2022/05/18 04:52:25;;;;;;;5.13;2.70;;;20.10;56.30;;;;;;5044097;28;20060;-49
2022/05/18 04:54:52;;;;;;;3.50;2.80;;;20.10;56.40;;;;;;5043305;28;20060;-48
2022/05/18 04:57:20;;;;;;;7.38;3.42;;;20.10;56.40;;;;;;5043453;28;20053;-49
2022/05/18 04:59:48;;;;;;;6.00;3.13;;;20.10;56.50;;;;;;5042417;28;20045;-48
2022/05/18 05:02:18;;;;;;;6.57;3.38;;;20.10;56.50;;;;;;5041400;28;20056;-49
2022/05/18 05:04:47;;;;;;;5.82;3.22;;;20.20;56.50;;;;;;5042140;28;20053;-50
2022/05/18 05:07:14;;;;;;;4.20;2.63;;;20.20;56.40;;;;;;5043844;28;20055;-51
2022/05/18 05:09:43;;;;;;;5.75;3.45;;;20.20;56.30;;;;;;5043166;28;20052;-50
2022/05/18 05:12:11;;;;;;;4.40;2.90;;;20.20;56.20;;;;;;5042947;28;20052;-49
2022/05/18 05:14:39;;;;;;;4.57;2.65;;;20.20;56.10;;;;;;5043842;28;20520;-51
2022/05/18 05:17:08;;;;;;;4.53;3.00;;;20.20;56.10;;;;;;5041023;28;20489;-50
2022/05/18 05:19:36;;;;;;;4.75;2.65;;;20.20;56.10;;;;;;5042222;28;20053;-48
2022/05/18 05:22:05;;;;;;;7.32;3.50;;;20.30;56.20;;;;;;5042053;28;20053;-50
2022/05/18 05:24:33;;;;;;;7.05;3.47;;;20.30;56.40;;;;;;5042174;28;20052;-47
2022/05/18 05:27:01;;;;;;;6.55;3.42;;;20.30;56.40;;;;;;5042865;28;20057;-49
2022/05/18 05:29:28;;;;;;;5.65;3.20;;;20.30;56.40;;;;;;5042723;28;20926;-51
2022/05/18 05:31:56;;;;;;;8.20;3.40;;;20.30;56.50;;;;;;5041564;28;20060;-50
2022/05/18 05:34:23;;;;;;;7.82;3.35;;;20.30;56.50;;;;;;5043088;28;20064;-51
2022/05/18 05:36:50;;;;;;;6.75;3.58;;;20.40;56.60;;;;;;5044465;28;20072;-50
2022/05/18 05:39:20;;;;;;;7.75;3.53;;;20.40;56.70;;;;;;5043064;28;20048;-48
2022/05/18 05:41:48;;;;;;;8.35;4.18;;;20.40;56.70;;;;;;5041554;28;20063;-48
2022/05/18 05:44:15;;;;;;;6.82;4.00;;;20.50;56.80;;;;;;5041521;28;20064;-48
2022/05/18 05:46:43;;;;;;;5.53;3.83;;;20.50;56.90;;;;;;5041997;28;20048;-47
2022/05/18 05:49:12;;;;;;;7.78;4.20;;;20.60;57.00;;;;;;5037981;28;20052;-52
2022/05/18 05:51:39;;;;;;;7.78;3.95;;;20.60;57.00;;;;;;5043012;28;20509;-47
2022/05/18 05:54:07;;;;;;;7.22;3.30;;;20.70;56.80;;;;;;5042204;28;20057;-49
2022/05/18 05:56:36;;;;;;;4.78;3.20;;;20.80;56.60;;;;;;5042323;28;20067;-48
2022/05/18 05:59:04;;;;;;;7.20;3.03;;;20.80;56.70;;;;;;5042885;28;20444;-49
2022/05/18 06:01:31;;;;;;;9.10;3.83;;;20.90;56.70;;;;;;5041695;28;20075;-51
2022/05/18 06:03:59;;;;;;;6.97;3.28;;;21.00;57.10;;;;;;5041662;28;20048;-48
2022/05/18 06:06:26;;;;;;;6.72;3.35;;;21.10;56.50;;;;;;5043420;28;20053;-50
2022/05/18 06:08:54;;;;;;;4.95;3.28;;;21.20;56.30;;;;;;5041915;28;20053;-48
2022/05/18 06:11:21;;;;;;;6.10;3.38;;;21.30;56.20;;;;;;5041875;28;20061;-47
2022/05/18 06:13:51;;;;;;;6.35;2.95;;;21.40;56.40;;;;;;5040580;28;20053;-50
2022/05/18 06:16:20;;;;;;;6.53;3.13;;;21.50;56.30;;;;;;5043372;28;20049;-47
2022/05/18 06:18:47;;;;;;;6.78;3.50;;;21.60;56.20;;;;;;5038814;28;20519;-51
2022/05/18 06:21:16;;;;;;;4.97;3.20;;;21.70;56.10;;;;;;5041284;28;20060;-50
2022/05/18 06:23:43;;;;;;;5.50;3.33;;;21.80;56.10;;;;;;5041601;28;20063;-51
2022/05/18 06:26:11;;;;;;;5.13;3.13;;;21.90;55.80;;;;;;5042430;28;20053;-50
2022/05/18 06:28:40;;;;;;;5.13;3.03;;;22.00;55.70;;;;;;5042456;28;20061;-47
2022/05/18 06:31:09;;;;;;;5.15;2.90;;;22.10;55.30;;;;;;5040267;28;20076;-50
2022/05/18 06:33:37;;;;;;;4.65;2.53;;;22.20;55.30;;;;;;5040742;28;20060;-49
2022/05/18 06:36:05;;;;;;;4.32;2.88;;;22.20;55.00;;;;;;5041830;28;20063;-51
2022/05/18 06:38:33;;;;;;;5.80;2.95;;;22.30;54.60;;;;;;5044268;28;20655;-49
2022/05/18 06:43:45;;;;;;;7.95;2.90;;;22.40;54.10;;;;;;5047962;28;20064;-48
2022/05/18 06:46:14;;;;;;;5.78;2.88;;;22.40;54.10;;;;;;5042214;28;20056;-47
2022/05/18 06:48:41;;;;;;;9.35;2.90;;;22.40;54.20;;;;;;5039267;28;20052;-48
2022/05/18 06:51:12;;;;;;;4.38;2.63;;;22.40;54.30;;;;;;5042074;28;20075;-49
2022/05/18 06:53:41;;;;;;;4.55;2.58;;;22.40;54.30;;;;;;5041664;28;20053;-49
2022/05/18 06:56:08;;;;;;;7.22;2.75;;;22.40;54.40;;;;;;5042044;28;20045;-48
2022/05/18 06:58:36;;;;;;;6.05;3.10;;;22.50;54.50;;;;;;5040612;28;20061;-49
2022/05/18 07:01:06;;;;;;;6.47;2.45;;;22.50;54.20;;;;;;5046610;28;20743;-47
2022/05/18 07:03:35;;;;;;;3.55;2.30;;;22.50;54.10;;;;;;5043855;28;20060;-48
2022/05/18 07:06:04;;;;;;;7.00;3.80;;;22.60;54.00;;;;;;5045573;28;20408;-48
2022/05/18 07:08:32;;;;;;;7.10;3.47;;;22.60;54.00;;;;;;5044864;28;20068;-49
2022/05/18 07:11:00;;;;;;;12.55;3.83;;;22.60;53.70;;;;;;5045212;28;20037;-48
2022/05/18 07:13:28;;;;;;;4.70;2.60;;;22.70;53.80;;;;;;5045014;28;20053;-51
2022/05/18 07:15:55;;;;;;;4.68;2.30;;;22.70;53.50;;;;;;5047856;28;20060;-47
2022/05/18 07:18:26;;;;;;;5.50;2.53;;;22.70;53.00;;;;;;5044417;28;20064;-47
2022/05/18 07:20:55;;;;;;;6.55;2.40;;;22.80;52.90;;;;;;5045230;28;20417;-50
2022/05/18 07:23:23;;;;;;;5.00;2.65;;;22.80;52.80;;;;;;5044546;28;20053;-49
2022/05/18 07:25:50;;;;;;;4.25;2.60;;;22.90;52.40;;;;;;5045522;28;20497;-47
2022/05/18 07:28:18;;;;;;;6.82;2.30;;;22.90;52.30;;;;;;5045104;28;20412;-48
2022/05/18 07:30:45;;;;;;;5.65;2.50;;;23.00;52.30;;;;;;5045214;28;20200;-49
2022/05/18 07:33:13;;;;;;;7.20;2.28;;;23.00;52.20;;;;;;5045594;28;20087;-47
2022/05/18 07:35:40;;;;;;;3.60;2.33;;;23.10;52.20;;;;;;5045066;28;20520;-47
2022/05/18 07:38:10;;;;;;;7.82;2.55;;;23.10;52.20;;;;;;5043813;28;20416;-48
2022/05/18 07:40:37;;;;;;;6.35;2.15;;;23.20;51.70;;;;;;5045419;28;20057;-47
2022/05/18 07:43:05;;;;;;;3.42;2.13;;;23.20;51.50;;;;;;5045372;28;20508;-51
2022/05/18 07:45:33;;;;;;;5.35;2.50;;;23.30;51.60;;;;;;5044092;28;20622;-46
2022/05/18 07:48:00;;;;;;;4.72;2.25;;;23.30;51.50;;;;;;5042695;28;20106;-48
2022/05/18 07:50:28;;;;;;;5.15;2.15;;;23.40;51.60;;;;;;5043658;28;20824;-47
2022/05/18 07:52:58;;;;;;;6.88;2.70;;;23.40;51.50;;;;;;5042763;28;20068;-48
2022/05/18 07:55:28;;;;;;;3.80;2.17;;;23.50;51.60;;;;;;5045335;28;20654;-48
2022/05/18 07:57:56;;;;;;;4.38;2.10;;;23.50;51.90;;;;;;5045968;28;20535;-47
2022/05/18 08:00:25;;;;;;;7.70;3.08;;;23.60;51.60;;;;;;5043890;28;20052;-50
2022/05/18 08:02:53;;;;;;;4.38;2.67;;;23.60;51.90;;;;;;5042332;28;20075;-51
2022/05/18 08:05:20;;;;;;;7.32;2.88;;;23.70;51.70;;;;;;5042714;28;20053;-48
2022/05/18 08:07:48;;;;;;;5.28;2.65;;;23.80;51.30;;;;;;5044268;28;20061;-48
2022/05/18 08:15:52;;;;;;;9.85;3.55;;;24.00;50.00;;;;;;5042495;28;20056;-47
2022/05/18 08:18:21;;;;;;;5.97;2.88;;;24.00;50.30;;;;;;5042204;28;20060;-49
2022/05/18 08:20:50;;;;;;;5.72;2.15;;;24.10;50.00;;;;;;5043684;28;20060;-51
2022/05/18 08:23:18;;;;;;;5.68;2.25;;;24.10;49.90;;;;;;5041247;28;20481;-52
2022/05/18 08:25:47;;;;;;;6.22;2.00;;;24.20;50.00;;;;;;5043752;28;20052;-49
2022/05/18 08:28:17;;;;;;;5.03;2.40;;;24.20;50.10;;;;;;5043504;28;20057;-48
2022/05/18 08:30:45;;;;;;;3.90;2.10;;;24.30;49.60;;;;;;5043166;28;20059;-46
2022/05/18 08:33:13;;;;;;;5.40;2.60;;;24.40;49.90;;;;;;5042388;28;20076;-50
2022/05/18 08:35:43;;;;;;;3.35;2.17;;;24.50;49.70;;;;;;5042519;28;20057;-49
2022/05/18 08:38:12;;;;;;;4.35;1.95;;;24.50;49.60;;;;;;5041703;28;20049;-49
2022/05/18 08:40:45;;;;;;;6.25;2.45;;;24.60;49.70;;;;;;5041671;28;20063;-50
2022/05/18 08:43:21;;;;;;;5.82;1.95;;;24.60;49.70;;;;;;5042707;28;20271;-49
2022/05/18 08:45:52;;;;;;;4.30;1.95;;;24.70;49.60;;;;;;5043311;28;20053;-47
2022/05/18 08:48:30;;;;;;;5.07;2.53;;;24.70;49.30;;;;;;5042839;28;20053;-50
2022/05/18 08:51:03;;;;;;;3.20;1.98;;;24.80;49.40;;;;;;5043228;28;20531;-50
2022/05/18 08:53:40;;;;;;;4.20;2.10;;;24.90;49.30;;;;;;5044422;28;20063;-47
2022/05/18 08:56:14;;;;;;;2.97;2.10;;;25.00;49.60;;;;;;5042924;28;20049;-53
2022/05/18 08:58:45;;;;;;;;;;;25.00;49.30;;;;;;5042942;28;20416;-48
2022/05/18 09:01:16;;;;;;;7.15;2.38;;;25.10;49.30;;;;;;5043756;28;19925;-49
2022/05/18 09:03:47;;;;;;;5.25;2.40;;;25.20;49.00;;;;;;5041340;28;20048;-47
2022/05/18 09:06:27;;;;;;;4.20;1.90;;;25.20;49.10;;;;;;5043197;28;20063;-47
2022/05/18 09:11:48;;;;;;;4.40;1.90;;;25.30;48.30;;;;;;5042423;28;20056;-47
2022/05/18 09:14:21;;;;;;;2.72;1.90;;;25.30;48.30;;;;;;5042324;28;20512;-47
2022/05/18 09:17:01;;;;;;;3.72;2.08;;;25.40;48.00;;;;;;5040713;28;20049;-48
2022/05/18 09:19:39;;;;;;;4.55;2.35;;;25.40;47.80;;;;;;5042245;28;20511;-50
2022/05/18 09:22:17;;;;;;;4.32;2.25;;;25.50;47.70;;;;;;5041524;28;20049;-50
2022/05/18 09:24:54;;;;;;;3.97;2.15;;;25.50;47.20;;;;;;5042171;28;20056;-48
2022/05/18 09:27:35;;;;;;;5.47;2.15;;;25.50;46.70;;;;;;5041665;28;20063;-54
2022/05/18 09:30:13;;;;;;;7.65;4.25;;;25.60;46.40;;;;;;5043188;28;20492;-50
2022/05/18 09:33:01;;;;;;;8.63;4.72;;;25.60;46.60;;;;;;5041929;28;20071;-50
2022/05/18 09:35:47;;;;;;;5.00;2.70;;;25.70;45.90;;;;;;5044646;28;20056;-49
2022/05/18 09:38:23;;;;;;;5.90;2.30;;;25.70;46.30;;;;;;5043345;28;20053;-50
2022/05/18 09:40:51;;;;;;;6.65;2.40;;;25.80;47.00;;;;;;5042878;28;20404;-49
2022/05/18 09:43:26;;;;;;;4.47;2.00;;;25.90;47.00;;;;;;5042985;28;20052;-46
2022/05/18 09:45:57;;;;;;;3.05;2.15;;;25.90;46.70;;;;;;5040304;28;20055;-50
2022/05/18 09:48:31;;;;;;;3.38;2.20;;;26.00;47.00;;;;;;5038628;28;20049;-50
2022/05/18 09:50:59;;;;;;;4.90;2.20;;;26.00;46.60;;;;;;5040388;28;20067;-49
2022/05/18 09:53:27;;;;;;;4.75;2.00;;;26.10;46.70;;;;;;5041726;28;20420;-49
2022/05/18 09:55:55;;;;;;;3.72;1.98;;;26.20;46.40;;;;;;5040846;28;20053;-49
2022/05/18 09:58:27;;;;;;;5.03;1.95;;;26.30;46.20;;;;;;5040814;28;20057;-48
2022/05/18 10:09:27;;;;;;;3.75;1.70;;;26.40;45.00;;;;;;5050157;28;20056;-48
2022/05/18 10:11:54;;;;;;;1.63;1.30;;;26.40;44.20;;;;;;5040570;28;20127;-46
2022/05/18 10:14:32;;;;;;;4.75;1.73;;;26.50;44.80;;;;;;5040992;28;20057;-48
2022/05/18 10:17:07;;;;;;;3.88;1.88;;;26.50;44.20;;;;;;5039355;28;20056;-49
2022/05/18 10:19:38;;;;;;;4.90;1.80;;;26.50;44.20;;;;;;5040429;28;20044;-49
2022/05/18 10:22:07;;;;;;;3.25;1.50;;;26.60;44.30;;;;;;5041135;28;20056;-49
2022/05/18 10:24:39;;;;;;;4.97;2.08;;;26.60;43.50;;;;;;5040538;28;20083;-47
2022/05/18 10:27:12;;;;;;;4.43;1.60;;;26.70;43.70;;;;;;5040103;28;20052;-47
2022/05/18 10:29:40;;;;;;;2.40;1.58;;;26.70;43.70;;;;;;5040401;28;20049;-48
2022/05/18 10:32:11;;;;;;;4.43;1.38;;;26.80;43.10;;;;;;5039754;28;20059;-48
2022/05/18 10:34:44;;;;;;;4.38;1.40;;;26.80;42.60;;;;;;5045129;28;20404;-48
2022/05/18 10:37:14;;;;;;;3.20;1.60;;;26.90;41.80;;;;;;5044570;28;20064;-48
2022/05/18 10:39:44;;;;;;;4.55;1.85;;;27.00;42.10;;;;;;5046847;28;20412;-48
2022/05/18 10:42:25;;;;;;;3.42;1.42;;;27.00;41.50;;;;;;5045303;28;20060;-46
2022/05/18 10:44:54;;;;;;;1.48;1.20;;;27.10;41.00;;;;;;5045170;28;20429;-46
2022/05/18 10:47:32;;;;;;;3.53;1.40;;;27.10;41.10;;;;;;5043456;28;20064;-50
2022/05/18 10:50:26;;;;;;;2.40;1.30;;;27.10;40.70;;;;;;5045463;28;20061;-50
2022/05/18 10:52:58;;;;;;;5.30;2.63;;;27.20;40.00;;;;;;5044509;28;20515;-48
2022/05/18 10:55:28;;;;;;;4.50;1.67;;;27.20;40.70;;;;;;5045088;28;20053;-47
2022/05/18 10:58:00;;;;;;;6.72;1.70;;;27.20;40.40;;;;;;5044228;28;20053;-46
2022/05/18 11:00:40;;;;;;;4.90;1.40;;;27.30;40.20;;;;;;5045188;28;20052;-47
2022/05/18 11:03:19;;;;;;;4.00;1.48;;;27.30;39.50;;;;;;5043199;28;20052;-46
2022/05/18 11:05:51;;;;;;;2.35;1.30;;;27.30;39.50;;;;;;5045124;28;20049;-48
2022/05/18 11:08:21;;;;;;;2.33;1.52;;;27.30;40.20;;;;;;5045793;28;20067;-48
2022/05/18 11:10:54;;;;;;;1.70;1.30;;;27.30;40.10;;;;;;5045122;28;20063;-47
2022/05/18 11:13:29;;;;;;;1.73;1.40;;;27.30;40.40;;;;;;5044725;28;20063;-49
2022/05/18 11:16:05;;;;;;;3.65;1.35;;;27.30;40.20;;;;;;5045043;28;20508;-46
2022/05/18 11:18:43;;;;;;;3.75;1.60;;;27.30;40.10;;;;;;5044249;28;20400;-47
2022/05/18 11:21:22;;;;;;;1.00;0.90;;;27.40;40.10;;;;;;5045074;28;20053;-49
2022/05/18 11:24:12;;;;;;;5.32;1.17;;;27.40;39.50;;;;;;5044442;28;20053;-47
2022/05/18 11:26:50;;;;;;;3.05;1.30;;;27.50;39.00;;;;;;5044056;28;20411;-48
2022/05/18 11:29:32;;;;;;;4.18;1.17;;;27.50;38.20;;;;;;5044716;28;20069;-47
2022/05/18 11:32:27;;;;;;;3.17;1.42;;;27.50;38.10;;;;;;5043920;28;20508;-51
2022/05/18 11:35:03;;;;;;;4.63;1.90;;;27.60;38.90;;;;;;5046095;28;20056;-49
2022/05/18 11:38:10;;;;;;;6.40;1.60;;;27.60;38.90;;;;;;5045270;28;20064;-48
2022/05/18 11:40:44;;;;;;;3.47;1.98;;;27.70;39.10;;;;;;5021266;28;20869;-48
2022/05/18 11:43:33;;;;;;;2.65;1.30;;;27.80;39.10;;;;;;5044305;28;20056;-47
2022/05/18 11:46:17;;;;;;;3.35;1.33;;;27.80;38.70;;;;;;5043986;28;20515;-46
2022/05/18 11:48:46;;;;;;;;;;;27.80;37.90;;;;;;5043789;28;20053;-48
2022/05/18 11:51:26;;;;;;;4.80;1.60;;;27.90;39.10;;;;;;5044185;28;19920;-46
2022/05/18 11:54:02;;;;;;;1.77;1.08;;;27.90;38.60;;;;;;5044464;28;20507;-47
2022/05/18 11:56:38;;;;;;;4.20;1.77;;;28.00;39.50;;;;;;5044401;28;20428;-47
2022/05/18 11:59:28;;;;;;;2.25;1.50;;;28.00;38.60;;;;;;5044613;28;20424;-46
2022/05/18 12:02:12;;;;;;;2.42;1.10;;;28.10;38.60;;;;;;5043720;28;20045;-47
2022/05/18 12:05:12;;;;;;;2.25;1.20;;;28.10;38.00;;;;;;5046838;28;20045;-48
2022/05/18 12:07:55;;;;;;;2.42;1.33;;;28.10;37.30;;;;;;5044628;28;21434;-46
2022/05/18 12:10:27;;;;;;;6.68;1.42;;;28.20;37.60;;;;;;5043730;28;20500;-47
2022/05/18 12:13:00;;;;;;;3.10;1.20;;;28.20;36.90;;;;;;5043922;28;20056;-48
2022/05/18 12:15:36;;;;;;;5.15;1.20;;;28.20;36.90;;;;;;5044091;28;20044;-47
2022/05/18 12:18:08;;;;;;;3.50;1.45;;;28.20;36.80;;;;;;5042683;28;20057;-48
2022/05/18 12:20:43;;;;;;;1.55;1.10;;;28.20;36.80;;;;;;5046200;28;20063;-51
2022/05/18 12:23:16;;;;;;;1.77;1.05;;;28.30;36.50;;;;;;5043807;28;20052;-47
2022/05/18 12:25:45;;;;;;;1.83;1.38;;;28.30;37.10;;;;;;5043702;28;20057;-46
2022/05/18 12:28:15;;;;;;;2.05;1.00;;;28.30;37.70;;;;;;5043729;28;20064;-49
2022/05/18 12:30:46;;;;;;;3.95;1.02;;;28.30;37.30;;;;;;5044528;28;20519;-48
2022/05/18 12:33:14;;;;;;;3.33;1.27;;;28.40;37.00;;;;;;5040813;28;20084;-51
2022/05/18 12:35:51;;;;;;;1.10;0.90;;;28.40;36.50;;;;;;5043929;28;20056;-47
2022/05/18 12:38:27;;;;;;;1.05;0.90;;;28.40;36.10;;;;;;5042981;28;20061;-47
2022/05/18 12:41:00;;;;;;;1.27;1.05;;;28.50;35.50;;;;;;5044220;28;20053;-46
2022/05/18 12:43:33;;;;;;;1.27;1.10;;;28.50;35.80;;;;;;5040405;28;20057;-51
2022/05/18 12:46:05;;;;;;;6.03;1.02;;;28.50;36.00;;;;;;5045611;28;20416;-48
2022/05/18 12:48:39;;;;;;;3.17;1.23;;;28.50;36.40;;;;;;5041436;28;20061;-47
2022/05/18 12:51:32;;;;;;;2.70;1.20;;;28.50;35.90;;;;;;5043475;28;20057;-46
2022/05/18 12:54:24;;;;;;;3.47;1.23;;;28.50;36.00;;;;;;5042253;28;20052;-46
2022/05/18 12:57:09;;;;;;;1.92;1.10;;;28.60;36.00;;;;;;5042679;28;20672;-45
2022/05/18 13:00:22;;;;;;;4.28;1.50;;;28.60;36.20;;;;;;5044363;28;20057;-46
2022/05/18 13:02:56;;;;;;;1.83;1.20;;;28.60;36.20;;;;;;4980290;28;20068;-46
2022/05/18 13:05:37;;;;;;;4.15;1.30;;;28.50;36.40;;;;;;5044539;28;20063;-47
2022/05/18 13:08:13;;;;;;;3.13;1.30;;;28.60;36.80;;;;;;5043240;28;20060;-47
2022/05/18 13:11:01;;;;;;;8.77;1.50;;;28.60;36.40;;;;;;5043230;28;20057;-46
2022/05/18 13:13:35;;;;;;;2.10;1.35;;;28.60;37.00;;;;;;5042754;28;20063;-46
2022/05/18 13:16:03;;;;;;;;;;;28.60;35.80;;;;;;5041135;28;20045;-50
2022/05/18 13:18:32;;;;;;;17.75;11.90;;;28.60;36.60;;;;;;5041493;28;19927;-47
2022/05/18 13:21:28;;;;;;;3.92;3.13;;;28.70;36.50;;;;;;5042273;28;20049;-49
2022/05/18 13:24:02;;;;;;;4.28;1.50;;;28.70;36.10;;;;;;5041715;28;20048;-46
2022/05/18 13:26:35;;;;;;;2.63;1.40;;;28.70;36.30;;;;;;5043063;28;20056;-46
2022/05/18 13:29:09;;;;;;;4.43;1.38;;;28.80;36.10;;;;;;5042447;28;20064;-46
2022/05/18 13:31:38;;;;;;;2.35;1.23;;;28.90;35.90;;;;;;5041936;28;20913;-54
2022/05/18 13:34:12;;;;;;;3.67;1.58;;;28.90;35.80;;;;;;5041255;28;20041;-48
2022/05/18 13:36:47;;;;;;;2.75;1.40;;;28.90;35.60;;;;;;5042792;28;20072;-47